Time;durP1;ratioP1;P1;durP2;ratioP2;P2;SDS_P1;SDS_P2;PMS_P1;PMS_P2;Temp;Humidity;BMP_temperature;BMP_pressure;BME280_temperature;BME280_humidity;BME280_pressure;Samples;Min_cycle;Max_cycle;Signal;HPM_P1;HPM_P2
2024/01/02 00:02:36;;;;;;;22.40;18.20;;;;;;;15.75;45.34;98111.64;108030;1251;60586;-65
2024/01/02 00:05:13;;;;;;;23.60;18.10;;;;;;;15.27;45.95;98117.54;108241;1252;59724;-66
2024/01/02 00:19:17;;;;;;;20.40;16.50;;;;;;;15.36;45.99;98109.52;108255;1254;62120;-64
2024/01/02 00:25:59;;;;;;;21.70;17.70;;;;;;;15.25;46.36;98100.42;108294;1253;73161;-70
2024/01/02 00:32:44;;;;;;;20.50;16.50;;;;;;;15.36;46.58;98092.39;108394;1254;72491;-71
2024/01/02 00:38:46;;;;;;;17.20;14.10;;;;;;;15.58;45.98;98092.80;108345;1251;60121;-71
2024/01/02 00:41:17;;;;;;;19.20;14.60;;;;;;;15.48;46.33;98094.02;108000;1254;74347;-71
2024/01/02 00:43:48;;;;;;;16.90;13.70;;;;;;;15.56;46.10;98086.27;108445;1251;70364;-71
2024/01/02 00:46:19;;;;;;;15.00;12.20;;;;;;;15.40;46.45;98086.20;108266;1254;72922;-71
2024/01/02 00:48:50;;;;;;;13.50;11.20;;;;;;;15.25;46.50;98088.95;108332;1251;60853;-73
2024/01/02 00:51:21;;;;;;;10.30;9.10;;;;;;;15.32;46.27;98088.86;108337;1254;59807;-72
2024/01/02 00:54:00;;;;;;;9.80;7.30;;;;;;;15.34;46.05;98087.58;108265;1251;74532;-73
2024/01/02 00:57:18;;;;;;;7.80;4.90;;;;;;;15.20;46.10;98085.45;108354;1251;69134;-71
2024/01/02 00:59:49;;;;;;;6.80;4.90;;;;;;;15.20;45.71;98086.84;108336;1253;73421;-72
2024/01/02 01:02:19;;;;;;;5.20;4.70;;;;;;;15.24;45.87;98078.43;108212;1253;60261;-71
2024/01/02 01:04:51;;;;;;;4.70;4.20;;;;;;;15.37;45.70;98084.14;108348;1253;59719;-71
2024/01/02 01:07:22;;;;;;;4.30;3.50;;;;;;;15.34;45.52;98080.40;108233;1254;73743;-72
2024/01/02 01:09:53;;;;;;;4.80;3.40;;;;;;;15.23;45.65;98084.66;108296;1254;70136;-69
2024/01/02 01:12:23;;;;;;;3.60;3.10;;;;;;;15.18;45.78;98077.58;108278;1252;73399;-69
2024/01/02 01:15:34;;;;;;;2.40;2.20;;;;;;;15.14;45.74;98075.05;108361;1253;62260;-72
2024/01/02 01:23:04;;;;;;;2.30;1.90;;;;;;;15.11;45.20;98074.28;108452;1251;73603;-72
2024/01/02 01:26:16;;;;;;;2.00;1.80;;;;;;;15.46;44.60;98072.80;108102;1251;68565;-71
2024/01/02 01:29:27;;;;;;;1.70;1.40;;;;;;;15.59;44.25;98067.77;108451;1251;72492;-71
2024/01/02 01:32:01;;;;;;;1.10;1.00;;;;;;;15.19;44.76;98069.31;108284;1253;60817;-70
2024/01/02 01:35:13;;;;;;;1.60;1.30;;;;;;;14.99;45.08;98070.48;108194;1254;59727;-71
2024/01/02 01:38:24;;;;;;;1.60;1.10;;;;;;;14.92;44.95;98071.27;108321;1254;73389;-74
2024/01/02 01:40:56;;;;;;;1.00;0.90;;;;;;;14.46;45.30;98069.10;108313;1251;69466;-70
2024/01/02 01:43:27;;;;;;;1.40;1.10;;;;;;;14.46;45.41;98069.35;108336;1254;72374;-70
2024/01/02 01:45:57;;;;;;;2.20;1.30;;;;;;;14.48;45.27;98060.40;108279;1251;60594;-69
2024/01/02 01:48:29;;;;;;;1.20;0.90;;;;;;;14.90;44.31;98053.26;108217;1253;60742;-67
2024/01/02 01:51:02;;;;;;;1.00;0.80;;;;;;;14.86;44.49;98052.59;108250;1251;72604;-71
2024/01/02 01:53:30;;;;;;;1.40;0.80;;;;;;;14.77;44.35;98048.44;108164;1254;69462;-71
2024/01/02 02:01:05;;;;;;;1.30;1.00;;;;;;;15.08;43.76;98043.47;108321;1254;62141;-70
2024/01/02 02:07:56;;;;;;;1.00;0.80;;;;;;;14.63;46.52;98050.14;101383;1296;604546;-74
2024/01/02 02:11:08;;;;;;;1.20;0.80;;;;;;;16.09;41.47;98038.81;103844;1269;61016;-72
2024/01/02 02:13:57;;;;;;;0.90;0.70;;;;;;;15.78;41.59;98042.81;103796;1267;59876;-70
2024/01/02 02:17:12;;;;;;;0.70;0.70;;;;;;;15.67;41.71;98037.78;103834;1270;72506;-71
2024/01/02 02:20:23;;;;;;;1.00;0.70;;;;;;;15.69;41.66;98034.75;99470;1272;5467862;-68
2024/01/02 02:23:35;;;;;;;2.60;0.70;;;;;;;15.62;41.54;98037.64;104205;1264;61751;-69
2024/01/02 02:26:47;;;;;;;0.80;0.80;;;;;;;15.76;41.17;98030.26;104003;1271;59791;-69
2024/01/02 02:29:59;;;;;;;0.90;0.60;;;;;;;15.51;41.32;98027.51;103945;1270;72472;-71
2024/01/02 02:32:33;;;;;;;1.00;0.70;;;;;;;15.36;41.57;98024.02;104029;1266;69065;-68
2024/01/02 02:38:59;;;;;;;0.40;0.40;;;;;;;15.07;42.07;98015.87;104471;1257;60651;-69
2024/01/02 02:41:37;;;;;;;0.90;0.60;;;;;;;15.20;41.85;98020.17;104307;1259;59833;-68
2024/01/02 02:44:31;;;;;;;1.30;0.70;;;;;;;15.14;41.82;98019.83;104373;1260;73273;-68
2024/01/02 02:47:06;;;;;;;0.60;0.60;;;;;;;15.21;41.75;98016.17;104331;1263;68795;-68
2024/01/02 02:49:41;;;;;;;0.60;0.50;;;;;;;15.42;41.40;98007.30;104680;1257;71501;-69
2024/01/02 02:52:53;;;;;;;0.60;0.50;;;;;;;15.21;41.59;98008.65;104327;1258;60560;-69
2024/01/02 02:56:03;;;;;;;0.60;0.50;;;;;;;15.32;41.43;98009.38;104744;1257;60100;-69
2024/01/02 02:58:41;;;;;;;0.50;0.50;;;;;;;14.85;41.79;97999.08;104062;1261;73464;-71
2024/01/02 03:01:21;;;;;;;;;;;;;;;14.91;42.12;98007.84;104068;1259;70123;-70
2024/01/02 03:03:53;;;;;;;0.50;0.50;;;;;;;14.97;42.03;98009.81;106181;1257;72554;-71
2024/01/02 03:06:24;;;;;;;0.40;0.40;;;;;;;15.06;41.90;98007.83;106072;1259;61177;-71
2024/01/02 03:08:55;;;;;;;0.50;0.50;;;;;;;15.26;41.54;98006.40;104641;1262;60034;-68
2024/01/02 03:11:25;;;;;;;0.70;0.50;;;;;;;15.13;41.79;98005.23;104118;1263;73787;-71
2024/01/02 03:13:56;;;;;;;0.70;0.60;;;;;;;15.16;41.83;98006.40;104366;1267;69436;-69
2024/01/02 03:21:29;;;;;;;0.90;0.50;;;;;;;14.89;42.29;98003.64;104437;1258;60599;-71
2024/01/02 03:24:41;;;;;;;0.60;0.60;;;;;;;14.37;43.34;98000.06;104242;1260;59980;-68
2024/01/02 03:27:53;;;;;;;0.60;0.50;;;;;;;14.10;43.73;97990.70;104260;1265;72834;-69
2024/01/02 03:31:06;;;;;;;0.80;0.70;;;;;;;14.07;44.03;98004.00;103924;1263;68324;-69
2024/01/02 03:34:18;;;;;;;0.70;0.70;;;;;;;13.97;44.21;98005.52;104093;1279;72941;-68
2024/01/02 03:37:33;;;;;;;0.60;0.50;;;;;;;13.90;44.35;98005.05;104191;1263;60775;-69
2024/01/02 03:40:48;;;;;;;6.70;0.50;;;;;;;13.90;44.31;98002.79;104194;1262;59803;-71
2024/01/02 03:43:15;;;;;;;0.40;0.40;;;;;;;13.87;44.28;97995.59;103996;1260;72793;-70
2024/01/02 03:46:27;;;;;;;2.00;0.50;;;;;;;14.07;43.97;97994.52;104636;1267;69326;-71
2024/01/02 03:48:58;;;;;;;1.90;0.30;;;;;;;14.06;44.14;98000.19;104201;1259;72586;-69
2024/01/02 03:51:42;;;;;;;1.20;0.70;;;;;;;14.03;44.16;97998.55;103879;1277;60602;-69
2024/01/02 03:54:16;;;;;;;0.50;0.50;;;;;;;14.02;44.14;98002.70;104023;1263;59794;-69
2024/01/02 03:57:06;;;;;;;0.50;0.40;;;;;;;14.05;44.16;97998.92;104348;1257;73034;-70
2024/01/02 04:03:58;;;;;;;0.70;0.60;;;;;;;14.84;42.54;97994.36;104142;1262;74098;-70
2024/01/02 04:07:09;;;;;;;0.60;0.50;;;;;;;14.76;42.52;97995.39;104656;1261;59693;-70
2024/01/02 04:10:24;;;;;;;0.50;0.40;;;;;;;14.19;43.43;97998.56;104641;1254;59709;-70
2024/01/02 04:13:35;;;;;;;0.40;0.40;;;;;;;13.99;43.92;98005.56;104456;1259;73657;-71
2024/01/02 04:16:47;;;;;;;0.50;0.40;;;;;;;13.84;44.06;98009.05;105139;1253;69901;-71
2024/01/02 04:19:59;;;;;;;1.20;0.60;;;;;;;14.10;43.68;98010.63;104413;1270;72506;-70
2024/01/02 04:23:18;;;;;;;0.80;0.50;;;;;;;14.09;43.54;98016.52;104780;1254;61020;-70
2024/01/02 04:26:36;;;;;;;0.40;0.40;;;;;;;14.14;43.24;98013.63;104611;1256;60556;-72
2024/01/02 04:29:44;;;;;;;0.50;0.40;;;;;;;14.18;43.43;98019.52;104680;1259;72820;-70
2024/01/02 04:32:15;;;;;;;0.50;0.40;;;;;;;14.04;43.69;98025.70;104863;1271;69420;-73
2024/01/02 04:34:46;;;;;;;0.70;0.60;;;;;;;13.82;44.01;98026.49;107612;1254;71881;-67
2024/01/02 04:37:17;;;;;;;0.40;0.40;;;;;;;13.94;44.13;98027.27;105094;1256;60668;-70
2024/01/02 04:40:29;;;;;;;0.40;0.40;;;;;;;14.09;43.94;98026.59;104726;1257;60163;-69
2024/01/02 04:43:00;;;;;;;0.50;0.50;;;;;;;13.98;43.92;98030.83;104978;1258;72767;-69
2024/01/02 04:45:31;;;;;;;0.60;0.50;;;;;;;14.01;43.93;98032.99;108390;1251;69626;-70
2024/01/02 04:48:01;;;;;;;0.40;0.40;;;;;;;13.98;44.12;98032.42;108251;1253;73346;-70
2024/01/02 04:50:32;;;;;;;0.70;0.40;;;;;;;14.05;44.10;98038.69;108211;1253;60684;-70
2024/01/02 04:53:03;;;;;;;0.40;0.40;;;;;;;13.91;44.55;98046.38;108220;1252;59693;-70
2024/01/02 04:55:35;;;;;;;0.60;0.50;;;;;;;13.93;44.35;98040.23;108203;1252;73329;-69
2024/01/02 04:58:46;;;;;;;0.50;0.50;;;;;;;13.91;44.31;98042.15;108192;1253;69182;-70
2024/01/02 05:08:57;;;;;;;0.20;0.20;;;;;;;13.62;44.54;98057.54;108193;1252;60288;-69
2024/01/02 05:11:38;;;;;;;0.40;0.40;;;;;;;13.63;44.49;98060.05;108222;1253;72847;-70
2024/01/02 05:14:06;;;;;;;1.10;0.40;;;;;;;13.97;44.05;98052.92;108331;1252;69161;-73
2024/01/02 05:16:33;;;;;;;;;;;;;;;14.03;43.53;98060.35;108174;1251;73026;-67
2024/01/02 05:19:01;;;;;;;0.60;0.40;;;;;;;13.70;43.66;98064.06;108271;1253;60895;-73
2024/01/02 05:21:29;;;;;;;0.70;0.30;;;;;;;13.48;43.84;98072.89;108445;1252;58921;-72
2024/01/02 05:23:57;;;;;;;0.70;0.60;;;;;;;13.55;43.68;98074.59;108190;1252;72181;-72
2024/01/02 05:26:24;;;;;;;0.40;0.20;;;;;;;13.30;44.24;98087.15;108212;1253;69495;-72
2024/01/02 05:28:52;;;;;;;;;;;;;;;13.44;44.00;98093.77;108253;1252;73323;-70
2024/01/02 05:31:21;;;;;;;0.30;0.30;;;;;;;13.41;43.93;98105.28;108249;1252;59709;-72
2024/01/02 05:33:48;;;;;;;0.50;0.30;;;;;;;13.40;43.86;98104.53;108202;1253;60768;-72
2024/01/02 05:36:16;;;;;;;;;;;;;;;13.36;43.93;98103.45;108375;1251;73693;-73
2024/01/02 05:38:44;;;;;;;1.70;0.20;;;;;;;13.26;43.96;98099.98;108248;1251;70313;-74
2024/01/02 05:41:12;;;;;;;0.30;0.30;;;;;;;13.56;43.51;98100.41;108291;1253;72408;-76
2024/01/02 05:43:40;;;;;;;0.80;0.40;;;;;;;13.40;43.52;98105.36;108243;1253;59795;-71
2024/01/02 05:46:08;;;;;;;;;;;;;;;13.22;43.72;98112.55;108362;1252;58781;-70
2024/01/02 05:53:12;;;;;;;0.40;0.40;;;;;;;13.22;43.59;98123.52;101369;1296;615681;-69
2024/01/02 05:56:20;;;;;;;0.20;0.20;;;;;;;13.11;43.40;98116.89;103881;1269;59737;-72
2024/01/02 05:59:30;;;;;;;2.10;0.30;;;;;;;13.39;43.01;98132.59;103760;1270;60374;-71
2024/01/02 06:02:19;;;;;;;0.60;0.40;;;;;;;13.38;42.81;98137.56;103787;1270;71195;-71
2024/01/02 06:04:52;;;;;;;3.90;1.60;;;;;;;13.25;42.54;98143.32;100097;1271;5365180;-69
2024/01/02 06:07:22;;;;;;;1.30;0.50;;;;;;;13.28;42.46;98141.66;104468;1268;60714;-75
2024/01/02 06:10:33;;;;;;;0.60;0.30;;;;;;;13.48;42.13;98146.31;104453;1260;60116;-73
2024/01/02 06:13:44;;;;;;;0.20;0.20;;;;;;;13.21;42.32;98148.89;104780;1261;72367;-74
2024/01/02 06:16:57;;;;;;;1.50;1.40;;;;;;;13.24;42.34;98147.24;104561;1273;69624;-72
2024/01/02 06:20:10;;;;;;;0.30;0.30;;;;;;;13.10;42.14;98156.94;104628;1259;72723;-66
2024/01/02 06:23:18;;;;;;;0.30;0.30;;;;;;;13.48;41.74;98164.91;104331;1273;60842;-66
2024/01/02 06:25:51;;;;;;;0.40;0.40;;;;;;;13.47;41.54;98164.47;104340;1257;61079;-64
2024/01/02 06:29:02;;;;;;;0.60;0.50;;;;;;;13.43;41.78;98162.67;105061;1260;73201;-72
2024/01/02 06:31:38;;;;;;;0.60;0.40;;;;;;;13.84;40.93;98160.52;104395;1260;69495;-73
2024/01/02 06:34:10;;;;;;;0.20;0.20;;;;;;;13.36;41.52;98167.84;104765;1260;71835;-72
2024/01/02 06:36:39;;;;;;;0.30;0.30;;;;;;;13.73;41.16;98177.39;104535;1257;60794;-69
2024/01/02 06:39:50;;;;;;;0.40;0.40;;;;;;;13.68;41.13;98191.52;104335;1273;59761;-74
2024/01/02 06:42:18;;;;;;;0.60;0.60;;;;;;;13.62;41.13;98195.73;104592;1257;73559;-73
2024/01/02 06:44:48;;;;;;;0.40;0.40;;;;;;;13.88;40.71;98198.45;104779;1264;69895;-77
2024/01/02 06:47:17;;;;;;;0.40;0.40;;;;;;;13.99;40.40;98208.27;105082;1257;72260;-74
2024/01/02 06:49:44;;;;;;;0.30;0.30;;;;;;;13.68;40.73;98213.41;104797;1261;61058;-74
2024/01/02 06:52:11;;;;;;;3.10;2.80;;;;;;;13.73;40.54;98208.08;104825;1267;59945;-69
2024/01/02 06:54:41;;;;;;;0.80;0.80;;;;;;;13.63;40.65;98213.21;104674;1261;72938;-70
2024/01/02 06:57:11;;;;;;;0.60;0.60;;;;;;;13.96;40.40;98215.54;105239;1256;68933;-75
2024/01/02 07:00:21;;;;;;;0.60;0.50;;;;;;;13.98;40.30;98222.45;105065;1257;73329;-77
2024/01/02 07:09:51;;;;;;;1.60;0.60;;;;;;;13.68;40.63;98252.81;105787;1256;73802;-76
2024/01/02 07:12:19;;;;;;;0.70;0.60;;;;;;;13.81;40.29;98254.98;107540;1260;68695;-73
2024/01/02 07:14:48;;;;;;;0.80;0.50;;;;;;;13.84;40.47;98257.88;105916;1256;73173;-72
2024/01/02 07:17:21;;;;;;;0.50;0.50;;;;;;;13.89;40.26;98259.30;104918;1264;61708;-71
2024/01/02 07:19:48;;;;;;;0.50;0.50;;;;;;;13.90;40.47;98267.66;104583;1257;59765;-72
2024/01/02 07:22:14;;;;;;;0.40;0.40;;;;;;;13.92;40.30;98268.19;104681;1261;73123;-72
2024/01/02 07:25:25;;;;;;;0.50;0.50;;;;;;;13.61;40.57;98270.45;104915;1257;69131;-69
2024/01/02 07:31:41;;;;;;;1.10;0.60;;;;;;;13.38;40.71;98280.61;104997;1258;59692;-69
2024/01/02 07:34:08;;;;;;;0.70;0.60;;;;;;;13.37;40.98;98288.95;105276;1253;60044;-69
2024/01/02 07:37:25;;;;;;;0.60;0.50;;;;;;;13.50;40.56;98283.27;105042;1251;71894;-70
2024/01/02 07:39:59;;;;;;;;;;;;;;;13.11;40.96;98288.45;104695;1254;69640;-70
2024/01/02 07:43:00;;;;;;;1.10;0.80;;;;;;;12.86;41.35;98291.69;104941;1264;73389;-73
2024/01/02 07:45:28;;;;;;;0.70;0.70;;;;;;;12.77;41.19;98293.41;106064;1252;60557;-70
2024/01/02 07:47:54;;;;;;;0.60;0.40;;;;;;;12.38;41.57;98300.59;108386;1252;59316;-69
2024/01/02 07:50:25;;;;;;;1.00;0.80;;;;;;;12.33;41.66;98302.69;105524;1256;71610;-69
2024/01/02 07:52:55;;;;;;;0.20;0.20;;;;;;;12.26;41.56;98305.89;106645;1254;69383;-69
2024/01/02 07:55:56;;;;;;;0.40;0.40;;;;;;;12.41;41.03;98311.13;104985;1255;73446;-68
2024/01/02 07:58:23;;;;;;;0.60;0.40;;;;;;;12.09;41.26;98320.08;104984;1252;60877;-68
2024/01/02 08:00:53;;;;;;;0.70;0.60;;;;;;;12.05;41.82;98332.43;107346;1252;59719;-69
2024/01/02 08:03:22;;;;;;;0.90;0.80;;;;;;;11.78;42.01;98341.44;105347;1253;73030;-67
2024/01/02 08:05:52;;;;;;;1.00;0.40;;;;;;;12.06;41.63;98345.17;104825;1254;69712;-69
2024/01/02 08:08:19;;;;;;;0.50;0.40;;;;;;;11.77;42.07;98341.40;105716;1254;72204;-69
2024/01/02 08:10:46;;;;;;;0.40;0.40;;;;;;;11.67;42.30;98351.73;105505;1253;59764;-70
2024/01/02 08:13:17;;;;;;;0.60;0.60;;;;;;;11.80;41.57;98357.30;106354;1252;60125;-70
2024/01/02 08:20:17;;;;;;;0.50;0.50;;;;;;;12.02;40.70;98367.23;104871;1251;69234;-68
2024/01/02 08:22:50;;;;;;;0.70;0.40;;;;;;;11.99;40.75;98369.02;104611;1257;73645;-67
2024/01/02 08:29:37;;;;;;;0.60;0.60;;;;;;;12.37;40.82;98371.83;104994;1254;61891;-69
2024/01/02 08:36:10;;;;;;;0.70;0.70;;;;;;;12.75;39.44;98383.20;104693;1252;70046;-68
2024/01/02 08:39:21;;;;;;;1.70;0.50;;;;;;;12.15;40.23;98398.61;104977;1253;72460;-71
2024/01/02 08:42:32;;;;;;;0.60;0.60;;;;;;;11.78;42.65;98400.49;105006;1254;62713;-72
2024/01/02 08:44:59;;;;;;;1.00;0.90;;;;;;;11.94;41.06;98400.12;105832;1254;59918;-73
2024/01/02 08:47:28;;;;;;;1.00;0.90;;;;;;;12.05;40.91;98399.05;105099;1254;73471;-72
2024/01/02 08:49:57;;;;;;;1.00;0.90;;;;;;;12.02;40.33;98401.55;105162;1251;68941;-72
2024/01/02 08:52:27;;;;;;;0.50;0.50;;;;;;;11.82;40.03;98407.56;105326;1259;72537;-70
2024/01/02 08:54:57;;;;;;;0.70;0.70;;;;;;;11.81;40.05;98413.63;105629;1252;60637;-66
2024/01/02 08:57:24;;;;;;;0.80;0.80;;;;;;;11.85;40.04;98418.96;106354;1252;59264;-71
2024/01/02 08:59:51;;;;;;;0.90;0.80;;;;;;;11.86;40.10;98430.47;104987;1257;73225;-68
2024/01/02 09:03:02;;;;;;;3.00;1.20;;;;;;;11.81;39.83;98433.77;104627;1252;69159;-65
2024/01/02 09:06:14;;;;;;;1.00;1.00;;;;;;;11.82;40.01;98438.46;104924;1257;73641;-67
2024/01/02 09:12:10;;;;;;;1.10;1.00;;;;;;;12.35;38.89;98446.68;105016;1255;59870;-68
2024/01/02 09:14:41;;;;;;;1.10;1.00;;;;;;;11.90;39.28;98445.66;105082;1255;72968;-67
2024/01/02 09:17:11;;;;;;;1.80;1.10;;;;;;;11.85;39.55;98447.58;106460;1252;69479;-66
2024/01/02 09:19:38;;;;;;;1.50;1.40;;;;;;;12.10;39.18;98455.40;104930;1256;72977;-66
2024/01/02 09:22:05;;;;;;;1.60;1.40;;;;;;;12.23;38.87;98455.41;105468;1252;61543;-62
2024/01/02 09:24:35;;;;;;;1.40;1.10;;;;;;;12.33;38.59;98457.71;104703;1252;59273;-65
2024/01/02 09:27:45;;;;;;;1.40;1.10;;;;;;;12.28;38.38;98451.54;105625;1253;73696;-66
2024/01/02 09:30:18;;;;;;;1.40;1.30;;;;;;;12.26;38.50;98459.27;104696;1256;69545;-66
2024/01/02 09:36:37;;;;;;;1.10;1.00;;;;;;;11.81;38.76;98455.71;104584;1257;60795;-65
2024/01/02 09:39:04;;;;;;;1.50;1.40;;;;;;;11.30;39.75;98454.36;104423;1260;59372;-64
2024/01/02 09:42:00;;;;;;;2.10;1.70;;;;;;;11.28;39.91;98462.34;104495;1254;73472;-69
2024/01/02 09:44:45;;;;;;;1.60;1.50;;;;;;;11.12;40.53;98459.12;106492;1253;68875;-66
2024/01/02 09:47:31;;;;;;;1.70;1.60;;;;;;;10.19;42.14;98465.73;107940;1251;72530;-66
2024/01/02 09:50:09;;;;;;;1.90;1.70;;;;;;;11.35;40.56;98462.97;106046;1253;60982;-68
2024/01/02 09:52:52;;;;;;;1.90;1.70;;;;;;;11.60;39.58;98454.52;105430;1253;59779;-66
2024/01/02 09:55:28;;;;;;;2.50;1.90;;;;;;;11.50;39.56;98456.38;106175;1253;73311;-69
2024/01/02 09:58:08;;;;;;;2.10;1.90;;;;;;;11.61;39.72;98460.08;106296;1254;70341;-71
2024/01/02 10:01:19;;;;;;;2.20;2.00;;;;;;;11.56;39.79;98460.88;105852;1253;71637;-71
2024/01/02 10:04:32;;;;;;;1.90;1.80;;;;;;;11.43;40.00;98461.95;104552;1256;61002;-71
2024/01/02 10:07:42;;;;;;;2.20;2.00;;;;;;;11.28;40.06;98460.95;104921;1251;59701;-74
2024/01/02 10:10:55;;;;;;;2.80;2.60;;;;;;;11.76;39.22;98455.02;104604;1253;72610;-72
2024/01/02 10:17:55;;;;;;;2.20;2.00;;;;;;;12.14;37.00;98457.07;105537;1251;73326;-71
2024/01/02 10:21:06;;;;;;;2.20;2.00;;;;;;;11.67;38.19;98452.64;105249;1253;61575;-71
2024/01/02 10:24:17;;;;;;;2.40;2.20;;;;;;;10.98;39.73;98459.69;104700;1257;59806;-72
2024/01/02 10:27:28;;;;;;;2.40;2.20;;;;;;;10.63;40.65;98453.46;105047;1253;73086;-72
2024/01/02 10:34:34;;;;;;;2.50;2.30;;;;;;;10.71;40.70;98450.68;104898;1253;73046;-72
2024/01/02 10:37:05;;;;;;;2.70;2.50;;;;;;;11.08;40.20;98450.98;105362;1253;61343;-73
2024/01/02 10:43:49;;;;;;;2.90;2.50;;;;;;;10.75;40.50;98453.81;105157;1253;75578;-68
2024/01/02 10:46:21;;;;;;;2.90;2.60;;;;;;;10.59;40.93;98452.88;105752;1251;69214;-66
2024/01/02 10:49:18;;;;;;;2.60;2.40;;;;;;;10.40;41.39;98454.50;108406;1251;72994;-67
2024/01/02 10:52:18;;;;;;;2.40;2.10;;;;;;;10.36;41.52;98450.55;108010;1251;62293;-67
2024/01/02 10:55:16;;;;;;;2.80;2.40;;;;;;;10.53;41.13;98453.91;108285;1251;60304;-68
2024/01/02 10:58:03;;;;;;;2.90;2.50;;;;;;;10.47;41.49;98454.83;104775;1254;73328;-70
2024/01/02 11:00:32;;;;;;;2.30;2.10;;;;;;;11.11;40.58;98452.55;106437;1251;69864;-68
2024/01/02 11:03:10;;;;;;;2.10;1.70;;;;;;;10.84;40.63;98455.65;108206;1251;72824;-65
2024/01/02 11:05:40;;;;;;;;;;;;;;;10.63;40.30;98457.54;107029;1252;60725;-68
2024/01/02 11:08:32;;;;;;;2.00;1.80;;;;;;;10.76;40.23;98463.16;105626;1252;60569;-67
2024/01/02 11:11:03;;;;;;;2.70;2.00;;;;;;;10.91;40.27;98469.95;105850;1251;73563;-66
2024/01/02 11:17:00;;;;;;;2.60;2.30;;;;;;;10.31;40.87;98473.27;108410;1251;73070;-66
2024/01/02 11:19:40;;;;;;;2.30;2.10;;;;;;;10.26;41.18;98472.86;107804;1252;60563;-66
2024/01/02 11:22:17;;;;;;;4.40;3.00;;;;;;;10.33;40.99;98472.13;104899;1252;60458;-67
2024/01/02 11:24:47;;;;;;;;;;;;;;;10.41;40.97;98471.94;104531;1253;72665;-68
2024/01/02 11:27:17;;;;;;;5.70;4.10;;;;;;;11.80;39.04;98458.98;104820;1253;68411;-67
2024/01/02 11:29:47;;;;;;;5.20;3.60;;;;;;;11.39;39.12;98463.34;106505;1253;72254;-66
2024/01/02 11:40:03;;;;;;;6.00;3.10;;;;;;;12.24;37.03;98484.01;105370;1253;74482;-67
2024/01/02 11:43:09;;;;;;;4.60;3.20;;;;;;;12.16;37.19;98481.20;105584;1253;69877;-68
2024/01/02 11:45:42;;;;;;;3.00;2.60;;;;;;;12.15;37.08;98481.94;104607;1253;73547;-69
2024/01/02 11:48:32;;;;;;;4.00;2.80;;;;;;;12.16;37.02;98489.41;108102;1253;60857;-69
2024/01/02 11:51:05;;;;;;;3.00;2.70;;;;;;;11.83;37.16;98497.01;107411;1252;60093;-69
2024/01/02 11:53:35;;;;;;;2.60;2.40;;;;;;;10.67;38.98;98498.45;106044;1252;74351;-67
2024/01/02 11:56:07;;;;;;;3.00;2.60;;;;;;;11.05;38.77;98500.11;104726;1253;69527;-68
2024/01/02 11:58:46;;;;;;;2.30;2.10;;;;;;;11.32;38.33;98495.97;106322;1252;72383;-68
2024/01/02 12:01:57;;;;;;;2.40;1.90;;;;;;;11.30;37.90;98499.91;105138;1253;62495;-68
2024/01/02 12:08:11;;;;;;;2.70;2.20;;;;;;;11.04;37.98;98513.02;105397;1253;74057;-67
2024/01/02 12:10:48;;;;;;;2.70;2.50;;;;;;;11.04;38.04;98523.14;104671;1252;69026;-67
2024/01/02 12:13:35;;;;;;;2.80;2.60;;;;;;;10.97;37.83;98522.20;104612;1253;72188;-67
2024/01/02 12:21:06;;;;;;;2.40;1.80;;;;;;;10.86;37.70;98542.69;104342;1267;61676;-62
2024/01/02 12:27:53;;;;;;;2.20;2.10;;;;;;;11.12;37.28;98547.39;104504;1258;70470;-62
2024/01/02 12:31:04;;;;;;;3.60;2.20;;;;;;;11.42;36.84;98544.31;104559;1256;73288;-63
2024/01/02 12:33:31;;;;;;;2.40;2.20;;;;;;;10.36;37.75;98547.34;104344;1253;61407;-64
2024/01/02 12:36:44;;;;;;;2.50;2.30;;;;;;;10.78;37.89;98553.34;104929;1255;60479;-63
2024/01/02 12:39:56;;;;;;;2.80;2.50;;;;;;;11.49;36.59;98556.30;104397;1251;74265;-65
2024/01/02 12:42:31;;;;;;;3.10;2.40;;;;;;;10.41;37.65;98562.11;104774;1256;70384;-66
2024/01/02 12:45:12;;;;;;;2.90;2.60;;;;;;;9.69;38.96;98565.95;104840;1257;75227;-65
2024/01/02 12:47:44;;;;;;;3.10;2.60;;;;;;;10.80;37.97;98571.54;104827;1257;61512;-64
2024/01/02 12:50:11;;;;;;;2.80;2.50;;;;;;;10.89;37.64;98570.20;105598;1256;62408;-64
2024/01/02 12:53:11;;;;;;;3.10;2.60;;;;;;;11.24;36.83;98575.95;104792;1252;73457;-66
2024/01/02 12:55:43;;;;;;;2.60;2.40;;;;;;;11.35;36.69;98580.52;105241;1251;70035;-65
2024/01/02 12:58:12;;;;;;;2.70;2.40;;;;;;;11.16;36.68;98583.83;105493;1251;73187;-65
2024/01/02 13:01:23;;;;;;;2.60;2.20;;;;;;;11.05;36.71;98583.58;105907;1252;60969;-65
2024/01/02 13:08:22;;;;;;;2.30;1.90;;;;;;;9.04;39.80;98597.80;104953;1257;73641;-63
2024/01/02 13:10:57;;;;;;;2.30;2.10;;;;;;;8.96;39.72;98599.94;105049;1253;69967;-65
2024/01/02 13:18:01;;;;;;;2.10;2.00;;;;;;;9.33;39.04;98602.90;106271;1251;62532;-64
2024/01/02 13:20:31;;;;;;;3.00;2.70;;;;;;;8.32;40.35;98617.56;107988;1252;60245;-65
2024/01/02 13:23:05;;;;;;;2.90;2.50;;;;;;;8.23;40.94;98619.41;106060;1251;74282;-64
2024/01/02 13:25:39;;;;;;;3.60;2.90;;;;;;;8.25;41.12;98621.60;104645;1256;69421;-63
2024/01/02 13:28:19;;;;;;;2.70;2.10;;;;;;;8.29;40.95;98626.63;108439;1253;72737;-64
2024/01/02 13:30:47;;;;;;;3.00;2.60;;;;;;;8.60;40.53;98632.05;106204;1253;60559;-64
2024/01/02 13:33:16;;;;;;;2.50;2.30;;;;;;;8.49;40.38;98632.98;105243;1251;60483;-63
2024/01/02 13:36:00;;;;;;;2.10;1.90;;;;;;;8.20;41.20;98635.10;105054;1252;74656;-63
2024/01/02 13:38:27;;;;;;;2.30;2.10;;;;;;;8.10;41.29;98639.09;105412;1254;70450;-62
2024/01/02 13:41:40;;;;;;;3.80;2.50;;;;;;;8.30;40.84;98639.16;105760;1253;72924;-62
2024/01/02 13:44:11;;;;;;;3.00;2.70;;;;;;;8.43;40.45;98643.79;104840;1253;61392;-63
2024/01/02 13:46:38;;;;;;;2.90;2.30;;;;;;;8.48;40.69;98649.59;104941;1256;60639;-62
2024/01/02 13:49:05;;;;;;;6.50;2.50;;;;;;;8.60;40.67;98647.95;105300;1252;73709;-61
2024/01/02 13:51:32;;;;;;;2.40;2.10;;;;;;;9.83;38.65;98643.42;104583;1272;68517;-62
2024/01/02 13:54:09;;;;;;;2.70;2.50;;;;;;;9.19;39.08;98653.11;104617;1257;71213;-65
2024/01/02 13:56:48;;;;;;;3.70;2.90;;;;;;;8.30;40.58;98659.77;105128;1252;60854;-62
2024/01/02 13:59:15;;;;;;;3.20;2.90;;;;;;;8.27;40.82;98658.67;104336;1255;60512;-62
2024/01/02 14:01:45;;;;;;;2.70;2.40;;;;;;;8.61;40.58;98660.48;105428;1251;74067;-67
2024/01/02 14:04:24;;;;;;;2.50;2.30;;;;;;;9.23;39.36;98660.81;105278;1255;69533;-64
2024/01/02 14:11:55;;;;;;;4.00;2.50;;;;;;;7.91;40.69;98677.00;104723;1262;61129;-68
2024/01/02 14:14:29;;;;;;;4.50;2.90;;;;;;;7.79;41.05;98679.14;104862;1256;60820;-68
2024/01/02 14:17:38;;;;;;;3.40;2.50;;;;;;;7.70;41.16;98688.09;104611;1256;73597;-66
2024/01/02 14:24:03;;;;;;;4.00;2.80;;;;;;;8.00;41.81;98688.45;101517;1297;604951;-69
2024/01/02 14:26:54;;;;;;;5.20;3.40;;;;;;;9.80;37.68;98689.80;103664;1278;61631;-65
2024/01/02 14:29:31;;;;;;;4.10;2.90;;;;;;;9.61;37.71;98692.56;103702;1268;59253;-62
2024/01/02 14:36:28;;;;;;;6.10;3.70;;;;;;;9.66;37.52;98697.52;99491;1266;5472339;-65
2024/01/02 14:46:58;;;;;;;2.60;2.40;;;;;;;8.55;39.32;98711.29;104364;1266;59777;-64
2024/01/02 14:49:53;;;;;;;3.60;2.80;;;;;;;8.70;39.27;98712.13;104276;1264;73162;-63
2024/01/02 14:52:59;;;;;;;2.80;2.60;;;;;;;8.81;39.05;98714.71;103969;1265;70166;-62
2024/01/02 14:55:52;;;;;;;2.80;2.50;;;;;;;9.01;38.82;98717.91;104181;1265;72564;-67
2024/01/02 14:58:56;;;;;;;3.20;2.50;;;;;;;8.82;38.98;98725.85;103967;1266;60778;-67
2024/01/02 15:01:53;;;;;;;3.10;2.80;;;;;;;8.95;38.68;98728.36;104008;1267;60066;-70
2024/01/02 15:05:06;;;;;;;3.30;3.00;;;;;;;8.65;38.83;98735.77;103793;1265;72668;-71
2024/01/02 15:19:06;;;;;;;2.80;2.40;;;;;;;7.73;39.76;98746.38;104488;1265;60216;-68
2024/01/02 15:21:46;;;;;;;3.40;2.40;;;;;;;7.53;40.13;98751.64;104597;1269;73458;-68
2024/01/02 15:24:59;;;;;;;3.80;2.70;;;;;;;7.47;40.07;98756.25;104259;1265;70415;-68
2024/01/02 15:28:14;;;;;;;5.60;2.20;;;;;;;7.55;39.87;98757.13;104250;1264;72820;-70
2024/01/02 15:31:26;;;;;;;1.90;1.70;;;;;;;7.54;39.81;98761.17;103954;1278;60905;-67
2024/01/02 15:34:38;;;;;;;2.50;2.30;;;;;;;7.50;40.02;98760.81;104019;1288;59963;-67